createdAt,value
2019-05-02T00:01:55.992Z,86.63
2019-05-02T00:04:12.498Z,83.07
2019-05-02T00:06:18.199Z,87.07
2019-05-02T00:08:23.426Z,99.60
2019-05-02T00:10:31.667Z,92.90
2019-05-02T00:12:36.325Z,86.40
2019-05-02T00:14:46.339Z,97.27
2019-05-02T00:16:53.635Z,93.23
2019-05-02T00:18:58.417Z,101.50
2019-05-02T00:22:22.399Z,91.67
2019-05-02T00:24:41.120Z,91.17
2019-05-02T00:26:47.663Z,93.97
2019-05-02T00:28:54.013Z,96.50
2019-05-02T00:31:07.591Z,98.97
2019-05-02T00:33:10.526Z,93.17
2019-05-02T00:35:16.637Z,90.93
2019-05-02T00:37:32.955Z,93.30
2019-05-02T00:39:38.811Z,99.13
2019-05-02T00:41:45.258Z,90.70
2019-05-02T00:43:49.694Z,88.67
2019-05-02T00:45:55.045Z,99.70
2019-05-02T00:48:11.981Z,102.80
2019-05-02T00:50:17.518Z,87.47
2019-05-02T00:52:22.270Z,90.00
2019-05-02T00:54:26.816Z,106.13
2019-05-02T00:56:31.957Z,105.90
2019-05-02T00:58:36.276Z,92.40
2019-05-02T01:01:02.920Z,88.10
2019-05-02T01:03:11.078Z,110.30
2019-05-02T01:05:15.009Z,95.17
2019-05-02T01:07:20.355Z,97.53
2019-05-02T01:09:34.419Z,93.90
2019-05-02T01:11:39.504Z,90.80
2019-05-02T01:13:45.492Z,99.57
2019-05-02T01:15:51.746Z,109.63
2019-05-02T01:18:01.125Z,100.47
2019-05-02T01:20:06.968Z,92.17
2019-05-02T01:22:15.861Z,105.43
2019-05-02T01:24:19.145Z,89.97
2019-05-02T01:26:29.295Z,102.83
2019-05-02T01:28:54.431Z,97.87
2019-05-02T01:31:20.078Z,90.13
2019-05-02T01:33:41.778Z,84.17
2019-05-02T01:35:54.587Z,90.60
2019-05-02T01:38:26.544Z,89.70
2019-05-02T01:40:30.631Z,91.50
2019-05-02T01:42:40.074Z,90.37
2019-05-02T01:44:41.135Z,109.67
2019-05-02T01:46:45.611Z,92.70
2019-05-02T01:48:50.092Z,101.13
2019-05-02T01:50:54.611Z,81.03
2019-05-02T01:53:00.209Z,99.37
2019-05-02T01:55:05.836Z,94.80
2019-05-02T01:57:14.061Z,84.80
2019-05-02T01:59:18.639Z,88.20
2019-05-02T02:01:23.363Z,83.80
2019-05-02T02:03:48.671Z,93.87
2019-05-02T02:05:53.607Z,94.90
2019-05-02T02:07:58.346Z,93.63
2019-05-02T02:10:02.704Z,97.23
2019-05-02T02:12:09.900Z,86.70
2019-05-02T02:14:18.371Z,84.73
2019-05-02T02:16:20.007Z,85.57
2019-05-02T02:18:27.656Z,88.27
2019-05-02T02:20:36.932Z,103.50
2019-05-02T02:22:53.677Z,88.87
2019-05-02T02:25:25.932Z,94.30
2019-05-02T02:27:30.271Z,89.87
2019-05-02T02:29:39.181Z,96.70
2019-05-02T02:31:46.545Z,90.03
2019-05-02T02:33:49.542Z,90.40
2019-05-02T02:35:54.203Z,80.53
2019-05-02T02:37:58.628Z,92.43
2019-05-02T02:40:03.231Z,74.87
2019-05-02T02:42:07.702Z,79.60
2019-05-02T02:44:33.562Z,86.67
2019-05-02T02:46:40.098Z,97.67
2019-05-02T02:48:44.670Z,80.47
2019-05-02T02:50:49.113Z,77.90
2019-05-02T02:52:53.460Z,88.80
2019-05-02T02:54:57.853Z,79.20
2019-05-02T02:57:02.337Z,81.80
2019-05-02T02:59:07.227Z,91.17
2019-05-02T03:01:11.733Z,84.53
2019-05-02T03:03:20.857Z,83.27
2019-05-02T03:05:25.908Z,82.00
2019-05-02T03:07:28.861Z,75.87
2019-05-02T03:09:36.924Z,75.90
2019-05-02T03:11:56.210Z,71.57
2019-05-02T03:14:07.231Z,75.53
2019-05-02T03:16:14.581Z,63.30
2019-05-02T03:18:19.032Z,74.77
2019-05-02T03:20:23.705Z,71.57
2019-05-02T03:22:35.060Z,73.77
2019-05-02T03:24:36.820Z,79.90
2019-05-02T03:26:41.651Z,77.50
2019-05-02T03:28:57.066Z,74.87
2019-05-02T03:30:52.531Z,57.80
2019-05-02T03:33:05.856Z,71.87
2019-05-02T03:35:03.230Z,79.67
2019-05-02T03:37:13.278Z,75.17
2019-05-02T03:39:17.416Z,74.50
2019-05-02T03:41:23.441Z,62.57
2019-05-02T03:43:28.546Z,62.43
2019-05-02T03:45:40.429Z,69.03
2019-05-02T03:47:43.529Z,71.50
2019-05-02T03:49:48.806Z,79.10
2019-05-02T03:51:56.113Z,70.57
2019-05-02T03:54:07.396Z,68.23
2019-05-02T03:56:10.663Z,79.30
2019-05-02T03:58:14.134Z,76.30
2019-05-02T04:00:20.748Z,77.73
2019-05-02T04:02:25.587Z,85.33
2019-05-02T04:04:30.913Z,72.17
2019-05-02T04:06:35.361Z,74.83
2019-05-02T04:08:40.226Z,70.63
2019-05-02T04:11:20.908Z,73.80
2019-05-02T04:13:30.119Z,70.90
2019-05-02T04:15:35.198Z,77.00
2019-05-02T04:17:40.197Z,70.47
2019-05-02T04:19:45.463Z,67.57
2019-05-02T04:21:54.528Z,76.60
2019-05-02T04:24:07.588Z,67.67
2019-05-02T04:26:06.810Z,70.83
2019-05-02T04:28:12.084Z,76.77
2019-05-02T04:30:16.610Z,67.53
2019-05-02T04:32:21.644Z,62.90
2019-05-02T04:34:26.667Z,67.73
2019-05-02T04:36:32.139Z,76.40
2019-05-02T04:38:47.425Z,65.63
2019-05-02T04:40:46.643Z,69.23
2019-05-02T04:43:02.101Z,72.20
2019-05-02T04:45:16.266Z,69.40
2019-05-02T04:47:11.048Z,58.33
2019-05-02T04:49:12.601Z,71.93
2019-05-02T04:51:22.313Z,63.30
2019-05-02T04:53:36.966Z,62.83
2019-05-02T04:55:33.678Z,72.07
2019-05-02T04:57:46.781Z,65.13
2019-05-02T04:59:44.652Z,71.50
2019-05-02T05:01:56.637Z,68.37
2019-05-02T05:04:01.005Z,65.17
2019-05-02T05:06:10.780Z,63.57
2019-05-02T05:08:08.773Z,63.20
2019-05-02T05:10:15.320Z,58.60
2019-05-02T05:12:19.763Z,64.07
2019-05-02T05:14:24.411Z,74.70
2019-05-02T05:16:29.303Z,64.47
2019-05-02T05:18:35.118Z,70.97
2019-05-02T05:20:40.513Z,62.67
2019-05-02T05:22:45.974Z,59.27
2019-05-02T05:25:01.023Z,58.50
2019-05-02T05:27:05.590Z,63.40
2019-05-02T05:29:13.954Z,86.13
2019-05-02T05:31:23.644Z,66.20
2019-05-02T05:33:22.344Z,62.70
2019-05-02T05:35:28.115Z,59.70
2019-05-02T05:37:32.888Z,68.23
2019-05-02T05:39:42.931Z,64.67
2019-05-02T05:41:50.567Z,69.63
2019-05-02T05:43:53.647Z,60.33
2019-05-02T05:46:09.255Z,63.87
2019-05-02T05:48:04.627Z,58.83
2019-05-02T05:50:09.327Z,69.00
2019-05-02T05:52:13.870Z,56.73
2019-05-02T05:54:24.635Z,61.30
2019-05-02T05:56:32.528Z,59.97
2019-05-02T05:58:39.794Z,55.83
2019-05-02T06:00:45.883Z,63.90
2019-05-02T06:02:55.543Z,68.47
2019-05-02T06:05:02.741Z,57.10
2019-05-02T06:07:07.235Z,63.53
2019-05-02T06:09:13.903Z,65.70
2019-05-02T06:11:21.813Z,68.27
2019-05-02T06:13:27.397Z,67.70
2019-05-02T06:15:39.022Z,77.17
2019-05-02T06:17:46.743Z,66.53
2019-05-02T06:19:53.591Z,59.50
2019-05-02T06:21:59.311Z,59.60
2019-05-02T06:24:03.670Z,64.77
2019-05-02T06:26:13.271Z,71.27
2019-05-02T06:28:15.945Z,65.27
2019-05-02T06:30:27.054Z,74.07
2019-05-02T06:32:31.111Z,65.83
2019-05-02T06:34:38.825Z,55.13
2019-05-02T06:36:43.653Z,60.90
2019-05-02T06:38:52.334Z,63.40
2019-05-02T06:40:55.379Z,68.50
2019-05-02T06:43:04.450Z,62.10
2019-05-02T06:45:07.273Z,62.10
2019-05-02T06:47:11.707Z,65.07
2019-05-02T06:49:17.569Z,61.13
2019-05-02T06:51:22.264Z,59.20
2019-05-02T06:53:27.282Z,62.10
2019-05-02T06:55:36.275Z,50.40
2019-05-02T06:57:41.413Z,55.80
2019-05-02T06:59:49.975Z,52.23
2019-05-02T07:01:57.423Z,57.33
2019-05-02T07:04:04.246Z,56.00
2019-05-02T07:06:08.836Z,51.73
2019-05-02T07:08:14.077Z,64.13
2019-05-02T07:10:25.428Z,48.03
2019-05-02T07:12:30.241Z,59.70
2019-05-02T07:14:35.655Z,55.50
2019-05-02T07:16:59.127Z,48.90
2019-05-02T07:19:27.373Z,54.10
2019-05-02T07:21:32.461Z,49.60
2019-05-02T07:23:36.994Z,46.10
2019-05-02T07:25:44.035Z,53.67
2019-05-02T07:27:47.974Z,55.10
2019-05-02T07:29:57.857Z,56.73
2019-05-02T07:31:58.608Z,54.53
2019-05-02T07:34:03.195Z,52.47
2019-05-02T07:36:07.887Z,66.37
2019-05-02T07:38:12.289Z,68.17
2019-05-02T07:40:19.687Z,53.80
2019-05-02T07:42:25.113Z,65.00
2019-05-02T07:44:32.551Z,46.57
2019-05-02T07:46:35.894Z,49.17
2019-05-02T07:48:43.544Z,55.63
2019-05-02T07:50:48.175Z,59.57
2019-05-02T07:52:52.707Z,58.60
2019-05-02T07:55:01.218Z,66.50
2019-05-02T07:57:05.122Z,74.37
2019-05-02T07:59:10.785Z,73.73
2019-05-02T08:01:16.239Z,71.40
2019-05-02T08:03:21.582Z,65.27
2019-05-02T08:05:26.035Z,79.03
2019-05-02T08:07:34.283Z,79.93
2019-05-02T08:09:39.210Z,72.67
2019-05-02T08:11:44.588Z,101.23
2019-05-02T08:13:55.507Z,94.37
2019-05-02T08:15:59.056Z,85.90
2019-05-02T08:18:03.930Z,93.07
2019-05-02T08:20:13.556Z,84.80
2019-05-02T08:22:15.651Z,84.53
2019-05-02T08:24:20.636Z,100.93
2019-05-02T08:26:26.723Z,111.93
2019-05-02T08:28:40.664Z,81.87
2019-05-02T08:30:50.396Z,96.97
2019-05-02T08:32:54.848Z,93.77
2019-05-02T08:34:59.193Z,95.00
2019-05-02T08:37:05.083Z,92.70
2019-05-02T08:39:09.532Z,92.17
2019-05-02T08:41:14.599Z,95.60
2019-05-02T08:43:20.344Z,88.53
2019-05-02T08:45:26.989Z,89.63
2019-05-02T08:47:35.729Z,87.13
2019-05-02T08:49:42.495Z,106.63
2019-05-02T08:51:46.900Z,98.90
2019-05-02T08:53:56.860Z,89.67
2019-05-02T08:55:59.503Z,97.83
2019-05-02T09:01:17.315Z,78.47
2019-05-02T09:03:55.044Z,88.03
2019-05-02T09:05:49.125Z,87.33
2019-05-02T09:07:55.129Z,83.80
2019-05-02T09:10:00.217Z,98.80
2019-05-02T09:12:12.328Z,93.33
2019-05-02T09:14:14.037Z,68.00
2019-05-02T09:16:23.328Z,94.47
2019-05-02T09:18:30.047Z,96.40
2019-05-02T09:20:32.326Z,78.63
2019-05-02T09:22:46.545Z,78.73
2019-05-02T09:24:53.000Z,86.10
2019-05-02T09:26:58.704Z,83.80
2019-05-02T09:29:05.351Z,76.17
2019-05-02T09:31:12.141Z,87.67
2019-05-02T09:33:17.576Z,83.70
2019-05-02T09:35:23.078Z,79.60
2019-05-02T09:37:27.735Z,77.07
2019-05-02T09:39:54.293Z,87.40
2019-05-02T09:42:12.409Z,85.83
2019-05-02T09:44:36.220Z,80.23
2019-05-02T09:46:42.742Z,97.90
2019-05-02T09:48:47.517Z,90.60
2019-05-02T09:51:12.898Z,71.20
2019-05-02T09:53:20.863Z,85.87
2019-05-02T09:55:36.343Z,75.23
2019-05-02T09:57:44.560Z,81.10
2019-05-02T09:59:55.708Z,72.73
2019-05-02T10:01:58.395Z,68.57
2019-05-02T10:04:04.579Z,83.23
2019-05-02T10:06:16.466Z,84.90
2019-05-02T10:08:31.852Z,71.33
2019-05-02T10:10:41.582Z,74.30
2019-05-02T10:12:56.338Z,80.63
2019-05-02T10:15:06.238Z,78.57
2019-05-02T10:17:18.528Z,74.43
2019-05-02T10:19:40.520Z,74.27
2019-05-02T10:21:47.064Z,67.53
2019-05-02T10:23:59.488Z,73.57
2019-05-02T10:26:24.565Z,69.93
2019-05-02T10:28:49.571Z,66.47
2019-05-02T10:31:13.081Z,76.03
2019-05-02T10:33:37.497Z,59.37
2019-05-02T10:35:55.867Z,68.70
2019-05-02T10:38:22.561Z,67.50
2019-05-02T10:40:34.305Z,66.27
2019-05-02T10:43:09.199Z,72.07
2019-05-02T10:45:27.160Z,74.57
2019-05-02T10:47:54.584Z,58.33
2019-05-02T10:50:26.949Z,65.33
2019-05-02T10:52:53.803Z,71.13
2019-05-02T10:55:15.353Z,63.07
2019-05-02T10:57:45.104Z,67.67
2019-05-02T11:00:00.508Z,62.70
2019-05-02T11:02:32.725Z,67.83
2019-05-02T11:04:52.445Z,67.00
2019-05-02T11:07:07.285Z,72.23
2019-05-02T11:09:26.234Z,71.80
2019-05-02T11:11:32.751Z,65.73
2019-05-02T11:14:18.887Z,58.17
2019-05-02T11:17:09.018Z,68.90
2019-05-02T11:19:34.114Z,57.73
2019-05-02T11:21:56.518Z,59.03
2019-05-02T11:24:17.400Z,74.40
2019-05-02T11:26:27.277Z,74.20
2019-05-02T11:28:32.382Z,62.50
2019-05-02T11:30:42.005Z,65.47
2019-05-02T11:33:02.909Z,70.73
2019-05-02T11:35:22.693Z,65.60
2019-05-02T11:37:57.947Z,68.33
2019-05-02T11:40:14.950Z,68.57
2019-05-02T11:42:37.482Z,66.30
2019-05-02T11:45:00.061Z,61.80
2019-05-02T11:47:26.350Z,64.23
2019-05-02T11:49:42.542Z,63.40
2019-05-02T11:52:04.334Z,65.40
2019-05-02T11:54:09.331Z,64.20
2019-05-02T11:56:19.085Z,65.57
2019-05-02T11:58:47.449Z,50.93
2019-05-02T12:01:04.861Z,56.70
2019-05-02T12:03:35.123Z,63.87
2019-05-02T12:05:43.228Z,62.10
2019-05-02T12:08:00.808Z,50.73
2019-05-02T12:10:42.406Z,58.90
2019-05-02T12:13:06.490Z,53.43
2019-05-02T12:15:24.567Z,48.50
2019-05-02T12:17:47.531Z,49.43
2019-05-02T12:20:03.601Z,55.40
2019-05-02T12:22:22.882Z,48.77
2019-05-02T12:24:36.430Z,44.23
2019-05-02T12:26:55.161Z,42.90
2019-05-02T12:29:15.066Z,52.70
2019-05-02T12:31:37.745Z,41.90
2019-05-02T12:34:02.804Z,46.97
2019-05-02T12:36:19.914Z,43.40
2019-05-02T12:38:32.342Z,37.90
2019-05-02T12:40:38.490Z,40.20
2019-05-02T12:42:46.180Z,39.23
2019-05-02T12:45:07.027Z,41.57
2019-05-02T12:47:31.943Z,41.63
2019-05-02T12:50:16.684Z,38.43
2019-05-02T12:52:37.378Z,44.33
2019-05-02T12:54:46.834Z,34.30
2019-05-02T12:57:12.463Z,44.50
2019-05-02T12:59:24.478Z,40.50
2019-05-02T13:01:33.361Z,47.30
2019-05-02T13:04:06.998Z,38.40
2019-05-02T13:06:25.543Z,37.33
2019-05-02T13:09:02.903Z,42.70
2019-05-02T13:11:36.978Z,37.50
2019-05-02T13:14:02.312Z,48.03
2019-05-02T13:16:25.810Z,28.40
2019-05-02T13:18:37.309Z,36.60
2019-05-02T13:20:45.639Z,32.70
2019-05-02T13:23:27.300Z,36.93
2019-05-02T13:25:36.852Z,34.50
2019-05-02T13:28:02.199Z,31.83
2019-05-02T13:30:13.744Z,32.43
2019-05-02T13:32:43.483Z,35.00
2019-05-02T13:34:56.977Z,26.93
2019-05-02T13:37:02.809Z,31.23
2019-05-02T13:39:12.369Z,24.90
2019-05-02T13:41:19.795Z,30.80
2019-05-02T13:43:27.900Z,28.67
2019-05-02T13:45:57.895Z,24.17
2019-05-02T13:48:12.201Z,29.87
2019-05-02T13:50:23.513Z,27.07
2019-05-02T13:53:05.646Z,29.83
2019-05-02T13:55:35.036Z,24.50
2019-05-02T13:57:46.864Z,24.93
2019-05-02T13:59:52.530Z,21.10
2019-05-02T14:02:26.215Z,26.83
2019-05-02T14:04:54.804Z,27.63
2019-05-02T14:07:07.597Z,31.53
2019-05-02T14:09:53.027Z,41.33
2019-05-02T14:12:21.841Z,50.23
2019-05-02T14:14:51.796Z,61.57
2019-05-02T14:17:02.982Z,61.23
2019-05-02T14:19:24.281Z,58.93
2019-05-02T14:22:00.490Z,65.87
2019-05-02T14:24:23.000Z,68.43
2019-05-02T14:26:45.855Z,76.37
2019-05-02T14:29:02.556Z,76.00
2019-05-02T14:31:21.634Z,78.83
2019-05-02T14:33:46.799Z,90.00
2019-05-02T14:35:54.475Z,86.73
2019-05-02T14:38:28.338Z,78.60
2019-05-02T14:40:54.935Z,97.97
2019-05-02T14:43:17.036Z,78.30
2019-05-02T14:45:30.744Z,87.43
2019-05-02T14:47:29.004Z,90.03
2019-05-02T14:49:39.680Z,105.10
2019-05-02T14:52:02.851Z,88.43
2019-05-02T14:54:32.576Z,76.47
2019-05-02T14:56:55.188Z,86.20
2019-05-02T14:59:22.607Z,84.00
2019-05-02T15:01:42.844Z,80.67
2019-05-02T15:04:09.426Z,76.43
2019-05-02T15:06:33.901Z,74.97
2019-05-02T15:08:58.709Z,82.00
2019-05-02T15:11:30.926Z,77.83
2019-05-02T15:13:43.650Z,74.47
2019-05-02T15:16:12.329Z,86.87
2019-05-02T15:18:22.713Z,82.00
2019-05-02T15:20:36.503Z,84.20
2019-05-02T15:22:59.824Z,80.60
2019-05-02T15:25:22.430Z,93.93
2019-05-02T15:27:42.517Z,88.37
2019-05-02T15:30:08.458Z,89.87
2019-05-02T15:32:44.894Z,90.93
2019-05-02T15:35:27.120Z,97.23
2019-05-02T15:37:31.968Z,74.40
2019-05-02T15:42:04.886Z,88.67
2019-05-02T15:44:12.571Z,89.90
2019-05-02T15:46:26.543Z,83.60
2019-05-02T15:48:27.706Z,87.13
2019-05-02T15:50:34.318Z,61.80
2019-05-02T15:52:43.761Z,65.90
2019-05-02T15:54:55.517Z,59.70
2019-05-02T15:57:03.213Z,51.17
2019-05-02T15:59:46.107Z,74.03
2019-05-02T16:01:55.679Z,65.83
2019-05-02T16:04:08.102Z,60.60
2019-05-02T16:06:16.575Z,58.70
2019-05-02T16:08:21.521Z,45.80
2019-05-02T16:10:33.444Z,48.57
2019-05-02T16:12:53.344Z,59.80
2019-05-02T16:14:57.857Z,46.27
2019-05-02T16:17:03.749Z,53.63
2019-05-02T16:19:08.410Z,60.67
2019-05-02T16:21:26.408Z,47.90
2019-05-02T16:23:30.189Z,52.33
2019-05-02T16:25:32.046Z,61.30
2019-05-02T16:27:45.495Z,53.17
2019-05-02T16:29:50.299Z,53.80
2019-05-02T16:32:03.566Z,53.00
2019-05-02T16:34:09.250Z,56.37
2019-05-02T16:36:16.342Z,50.20
2019-05-02T16:38:22.307Z,48.53
2019-05-02T16:40:29.629Z,54.40
2019-05-02T16:42:33.511Z,53.27
2019-05-02T16:44:38.274Z,54.57
2019-05-02T16:46:43.856Z,62.80
2019-05-02T16:48:48.363Z,59.00
2019-05-02T16:50:52.744Z,59.00
2019-05-02T16:52:58.809Z,54.80
2019-05-02T16:55:05.003Z,54.23
2019-05-02T16:57:09.428Z,61.63
2019-05-02T16:59:21.403Z,48.13
2019-05-02T17:01:27.498Z,52.90
2019-05-02T17:03:31.701Z,52.13
2019-05-02T17:05:42.479Z,49.83
2019-05-02T17:07:52.983Z,52.13
2019-05-02T17:10:13.702Z,44.67
2019-05-02T17:12:16.121Z,51.03
2019-05-02T17:14:22.081Z,52.63
2019-05-02T17:16:26.709Z,48.73
2019-05-02T17:18:32.691Z,48.17
2019-05-02T17:20:46.777Z,46.67
2019-05-02T17:22:50.349Z,45.97
2019-05-02T17:24:57.104Z,47.43
2019-05-02T17:27:02.574Z,51.33
2019-05-02T17:29:07.035Z,41.07
2019-05-02T17:31:19.249Z,50.00
2019-05-02T17:33:18.526Z,43.07
2019-05-02T17:35:23.978Z,47.60
2019-05-02T17:37:28.783Z,51.57
2019-05-02T17:39:37.235Z,42.67
2019-05-02T17:41:42.305Z,49.43
2019-05-02T17:43:46.720Z,43.37
2019-05-02T17:45:52.141Z,44.67
2019-05-02T17:47:56.637Z,44.23
2019-05-02T17:50:06.868Z,48.13
2019-05-02T17:52:26.543Z,53.50
2019-05-02T17:54:26.319Z,45.87
2019-05-02T17:56:32.620Z,52.27
2019-05-02T17:58:39.657Z,44.03
2019-05-02T18:00:47.346Z,53.80
2019-05-02T18:02:53.404Z,47.40
2019-05-02T18:05:32.100Z,48.83
2019-05-02T18:10:27.098Z,49.73
2019-05-02T18:12:32.498Z,47.80
2019-05-02T18:43:01.978Z,49.20
2019-05-02T18:45:07.586Z,40.77
2019-05-02T19:03:24.311Z,35.17
2019-05-02T19:05:32.521Z,46.27
2019-05-02T19:17:46.139Z,47.13
2019-05-02T19:19:52.659Z,41.10
2019-05-02T19:22:02.644Z,43.50
2019-05-02T19:24:06.707Z,33.57
2019-05-02T19:41:22.587Z,43.90
2019-05-02T19:53:27.222Z,32.87
2019-05-02T19:55:32.110Z,37.80
2019-05-02T19:57:38.997Z,48.77
2019-05-02T20:02:48.167Z,27.87
2019-05-02T20:04:52.758Z,34.37
2019-05-02T20:07:00.924Z,32.17
2019-05-02T20:09:08.271Z,32.60
2019-05-02T20:11:13.381Z,32.97
2019-05-02T20:13:20.398Z,35.70
2019-05-02T20:15:27.078Z,36.37
2019-05-02T20:17:32.615Z,34.57
2019-05-02T20:19:42.125Z,33.93
2019-05-02T20:22:06.740Z,35.07
2019-05-02T20:24:17.477Z,31.17
2019-05-02T20:26:19.464Z,36.30
2019-05-02T20:28:24.960Z,31.17
2019-05-02T20:30:29.415Z,26.60
2019-05-02T20:32:34.031Z,27.10
2019-05-02T20:34:38.877Z,33.80
2019-05-02T20:36:44.974Z,26.40
2019-05-02T20:38:52.428Z,22.33
2019-05-02T20:40:56.665Z,16.33
2019-05-02T20:43:02.535Z,21.63
2019-05-02T20:45:07.627Z,15.70
2019-05-02T20:47:21.827Z,16.13
2019-05-02T20:49:26.224Z,16.90
2019-05-02T20:51:32.061Z,16.07
2019-05-02T20:53:38.772Z,13.30
2019-05-02T20:55:43.152Z,15.23
2019-05-02T20:57:47.573Z,11.93
2019-05-02T20:59:52.951Z,11.20
2019-05-02T21:01:57.771Z,11.40
2019-05-02T21:04:02.771Z,9.70
2019-05-02T21:06:37.077Z,15.33
2019-05-02T21:08:44.365Z,8.83
2019-05-02T21:10:49.639Z,9.10
2019-05-02T21:12:56.106Z,9.40
2019-05-02T21:15:01.693Z,12.37
2019-05-02T21:17:06.393Z,16.00
2019-05-02T21:19:12.659Z,8.67
2019-05-02T21:21:19.543Z,18.03
2019-05-02T21:23:23.997Z,14.17
2019-05-02T21:25:28.493Z,8.40
2019-05-02T21:27:37.976Z,12.30
2019-05-02T21:29:42.632Z,9.83
2019-05-02T21:31:49.308Z,12.63
2019-05-02T21:33:53.910Z,9.20
2019-05-02T21:35:58.333Z,9.23
2019-05-02T21:38:02.668Z,10.37
2019-05-02T21:40:08.413Z,17.33
2019-05-02T21:42:14.081Z,7.67
2019-05-02T21:44:18.588Z,8.43
2019-05-02T21:46:23.971Z,9.57
2019-05-02T21:48:29.625Z,14.57
2019-05-02T21:50:54.177Z,15.90
2019-05-02T21:53:13.951Z,14.47
2019-05-02T21:55:37.373Z,8.73
2019-05-02T21:57:41.741Z,6.87
2019-05-02T21:59:46.147Z,12.43
2019-05-02T22:01:53.113Z,12.80
2019-05-02T22:03:58.274Z,17.27
2019-05-02T22:06:04.051Z,8.30
2019-05-02T22:08:08.551Z,14.80
2019-05-02T22:10:13.680Z,8.30
2019-05-02T22:12:18.174Z,12.23
2019-05-02T22:14:22.633Z,10.63
2019-05-02T22:16:27.409Z,10.23
2019-05-02T22:18:32.284Z,11.20
2019-05-02T22:20:36.722Z,11.57
2019-05-02T22:22:42.580Z,9.67
2019-05-02T22:24:47.146Z,12.33
2019-05-02T22:26:52.634Z,14.00
2019-05-02T22:28:57.186Z,8.97
2019-05-02T22:31:03.200Z,10.57
2019-05-02T22:33:07.796Z,11.90
2019-05-02T22:35:12.334Z,11.00
2019-05-02T22:37:18.528Z,11.50
2019-05-02T22:39:53.990Z,7.87
2019-05-02T22:42:02.007Z,16.63
2019-05-02T22:44:07.258Z,9.93
2019-05-02T22:46:14.047Z,12.30
2019-05-02T22:48:18.543Z,16.40
2019-05-02T22:50:23.179Z,11.97
2019-05-02T22:52:27.872Z,10.20
2019-05-02T22:54:33.874Z,13.33
2019-05-02T22:56:38.440Z,11.93
2019-05-02T22:58:42.877Z,9.23
2019-05-02T23:00:47.198Z,17.90
2019-05-02T23:02:52.589Z,12.43
2019-05-02T23:04:57.099Z,10.53
2019-05-02T23:07:02.300Z,7.33
2019-05-02T23:09:07.866Z,17.57
2019-05-02T23:11:12.995Z,7.93
2019-05-02T23:13:17.814Z,8.63
2019-05-02T23:15:22.092Z,8.27
2019-05-02T23:17:26.478Z,12.83
2019-05-02T23:19:31.692Z,10.93
2019-05-02T23:21:36.146Z,16.77
2019-05-02T23:23:41.796Z,10.93
2019-05-02T23:26:00.729Z,9.93
2019-05-02T23:28:09.355Z,13.80
2019-05-02T23:30:16.187Z,9.70
2019-05-02T23:32:23.607Z,14.70
2019-05-02T23:34:26.691Z,12.40
2019-05-02T23:36:32.524Z,15.70
2019-05-02T23:38:37.600Z,13.40
2019-05-02T23:40:42.132Z,12.30
2019-05-02T23:42:46.564Z,12.43
2019-05-02T23:44:51.883Z,16.20
2019-05-02T23:46:57.342Z,14.30
2019-05-02T23:49:02.183Z,11.43
2019-05-02T23:51:06.972Z,22.43
2019-05-02T23:53:12.816Z,13.50
2019-05-02T23:55:17.479Z,11.03
2019-05-02T23:57:23.021Z,20.40
2019-05-02T23:59:27.504Z,14.87
